Startpagina
METAR-TAF:

METAR-TAF

Vliegvelden :

Militair vliegvled

Meppen, Duitsland

breedte: 52-43-24N, lengte: 007-19-35E, hoogte: 21 m

Actueel weer

Dit bericht is 16 minuten geleden gemaakt, om 04:20 UTC
Wind 1 kt uit het noorden
Temperatuur -2°C
Vochtigheid 100%
Druk 1022 hPa
Zicht 10 km of meer
Weinig wolken op 16000 ft
mistbanken,

METAR: ETWM 230420Z 01001KT 9999 BCFG FEW160 M02/M02 Q1022 BLU+

Tijdstip: 06:36 (04:36 UTC)


TAF: ontbreekt

Waarnemingen en weersverwachtingen van meer dan 4000 vliegvelden (METAR en TAF).

De beschikbare stations zijn de gele en rode punten op de kaart.

Ga met uw muis naar het station om de naam te zien.

Klik dan om waarnemingen en weersverwachtingen te zien.

kaart wijzigen: klik op de groene knoppen met een zwart kruis om in te zoomen, op de groene knop met een streepje om uit te zoomen of op de groene pijlen voor aangrenzende kaarten.


METAR-TAF: